西安 の空港の天気 - METARとTAF

西安咸陽国際空港 ( ZLXY / XIY ) - 中華人民共和国 陝西省西安市
飛行場実況気象(Metar)
観測時間01/21 01:00 CST (01/20 17:00 UTC)
風向・風速南南西 3m/s
視程8000m
天気現象
なし
気温-4℃
湿度50%
気圧1031hPa
METARZLXY 201700Z 21003MPS 8000 NSC M04/M13 Q1031 NOSIG
過去の天気等 Google飛行場航空写真 Wunderground天気予報

過去48時間のMETAR

飛行場予報(TAF)
発表時間: 1/20 23:04 CST (1/20 15:04 UTC)
予報対象時間: 21日2時 CST ~ 22日2時 CST
風向・風速西南西 3m/s
視程3,000m
天気現象煙霧
なし
TAF ZLXY 201504Z 2018/2118 24003MPS 3000 HZ NSC TX06/2107Z TNM07/23Z